Harrah, WA

3:35 PM PDT on July 24, 2016 (GMT -0700)
APRSWXNET | | Change Station

Elev 850 ft 46.36 °N, 120.60 °W | Updated 41 minutes ago

Clear
Clear
86 °F
Feels Like 84 °F
N
6
Wind Variable Wind from NNE
Gusts 0.0 mph

Today
High -- | Low -- °F
--% Chance of Precip.
Yesterday
High -- | Low -- °F
Precip. -- in
Pressure 29.98 in
Visibility 10.0 miles
Clouds Clear
Heat Index 84 °F
Dew Point 53 °F
Humidity 32%
Rainfall in
Snow Depth Not available.
5:34 AM 8:41 PM
Waning Gibbous, 72% visible
METAR KYKM 242153Z 08003KT 10SM CLR 33/06 A3000 RMK AO2 SLP151 T03280061
Pressure 29.98 in
Visibility 10.0 miles
Clouds Clear
Heat Index 84 °F
Dew Point 53 °F
Humidity 32%
Rainfall in
Snow Depth Not available.
5:34 AM 8:41 PM
Waning Gibbous, 72% visible
METAR KYKM 242153Z 08003KT 10SM CLR 33/06 A3000 RMK AO2 SLP151 T03280061

10-Day Weather Forecast

Almanac

Astronomy

Jul. 24, 2016 Rise Set
Actual Time
Civil Twilight
Nautical Twilight
Astronomical Twilight
Moon
Length of Visible Light
Length of Day
Tomorrow will be .
, % of the Moon is Illuminated

Today's Extremes

State Highs State Lows

Community

WunderPhotos

Upload Photos

1,927,205 photos uploaded!

WunderBlog® & News

Nearby

Air Quality

  Air Quality AQ Index Pollutant
Not available.

Snow Depth

Station Depth Elevation

Earthquake Activity

City Distance Mag. Time & Date
Minimum magnitude displayed is 2.5.

Coastal Water Temperatures

Place Temperature

Stations

Nearby Weather Stations

Station Location Temp. Windchill Dew Point Humidity Wind Precip. Elev Updated Type
                   

Watches & Warnings

There are currently no watches in effect.